sensor_id;sensor_type;location;lat;lon;timestamp;P1;durP1;ratioP1;P2;durP2;ratioP2
73382;SDS011;61600;48.126;11.542;2024-01-30T00:01:38;11.93;;;4.78;;
73382;SDS011;61600;48.126;11.542;2024-01-30T00:04:04;12.93;;;5.32;;
73382;SDS011;61600;48.126;11.542;2024-01-30T00:06:29;10.60;;;4.63;;
73382;SDS011;61600;48.126;11.542;2024-01-30T00:08:55;10.05;;;5.20;;
73382;SDS011;61600;48.126;11.542;2024-01-30T00:11:20;11.55;;;4.97;;
73382;SDS011;61600;48.126;11.542;2024-01-30T00:13:46;10.77;;;4.20;;
73382;SDS011;61600;48.126;11.542;2024-01-30T00:16:20;11.73;;;5.38;;
73382;SDS011;61600;48.126;11.542;2024-01-30T00:18:47;11.63;;;5.25;;
73382;SDS011;61600;48.126;11.542;2024-01-30T00:21:13;12.93;;;5.90;;
73382;SDS011;61600;48.126;11.542;2024-01-30T00:23:38;10.63;;;5.25;;
73382;SDS011;61600;48.126;11.542;2024-01-30T00:26:04;12.70;;;5.25;;
73382;SDS011;61600;48.126;11.542;2024-01-30T00:28:31;10.02;;;4.70;;
73382;SDS011;61600;48.126;11.542;2024-01-30T00:30:57;11.95;;;4.63;;
73382;SDS011;61600;48.126;11.542;2024-01-30T00:33:22;10.90;;;4.65;;
73382;SDS011;61600;48.126;11.542;2024-01-30T00:35:48;13.55;;;4.68;;
73382;SDS011;61600;48.126;11.542;2024-01-30T00:38:14;8.55;;;4.35;;
73382;SDS011;61600;48.126;11.542;2024-01-30T00:40:39;9.00;;;4.15;;
73382;SDS011;61600;48.126;11.542;2024-01-30T00:43:05;10.18;;;4.13;;
73382;SDS011;61600;48.126;11.542;2024-01-30T00:45:31;10.57;;;4.22;;
73382;SDS011;61600;48.126;11.542;2024-01-30T00:47:56;9.07;;;4.10;;
73382;SDS011;61600;48.126;11.542;2024-01-30T00:50:22;11.38;;;4.25;;
73382;SDS011;61600;48.126;11.542;2024-01-30T00:52:47;11.05;;;4.15;;
73382;SDS011;61600;48.126;11.542;2024-01-30T00:55:13;8.85;;;4.40;;
73382;SDS011;61600;48.126;11.542;2024-01-30T00:57:39;8.35;;;4.10;;
73382;SDS011;61600;48.126;11.542;2024-01-30T01:00:05;13.57;;;4.50;;
73382;SDS011;61600;48.126;11.542;2024-01-30T01:02:34;9.23;;;4.60;;
73382;SDS011;61600;48.126;11.542;2024-01-30T01:05:01;8.82;;;3.92;;
73382;SDS011;61600;48.126;11.542;2024-01-30T01:07:27;10.32;;;4.22;;
73382;SDS011;61600;48.126;11.542;2024-01-30T01:09:52;10.90;;;4.57;;
73382;SDS011;61600;48.126;11.542;2024-01-30T01:12:18;9.60;;;4.40;;
73382;SDS011;61600;48.126;11.542;2024-01-30T01:14:44;8.57;;;3.88;;
73382;SDS011;61600;48.126;11.542;2024-01-30T01:17:09;9.75;;;3.95;;
73382;SDS011;61600;48.126;11.542;2024-01-30T01:19:35;8.85;;;3.90;;
73382;SDS011;61600;48.126;11.542;2024-01-30T01:22:00;11.02;;;4.32;;
73382;SDS011;61600;48.126;11.542;2024-01-30T01:24:26;8.77;;;3.90;;
73382;SDS011;61600;48.126;11.542;2024-01-30T01:26:52;9.60;;;4.20;;
73382;SDS011;61600;48.126;11.542;2024-01-30T01:29:17;9.77;;;3.83;;
73382;SDS011;61600;48.126;11.542;2024-01-30T01:31:43;8.57;;;3.67;;
73382;SDS011;61600;48.126;11.542;2024-01-30T01:34:09;9.70;;;4.28;;
73382;SDS011;61600;48.126;11.542;2024-01-30T01:36:35;7.40;;;3.38;;
73382;SDS011;61600;48.126;11.542;2024-01-30T01:39:01;7.78;;;3.97;;
73382;SDS011;61600;48.126;11.542;2024-01-30T01:41:31;6.90;;;3.95;;
73382;SDS011;61600;48.126;11.542;2024-01-30T01:44:00;9.52;;;3.65;;
73382;SDS011;61600;48.126;11.542;2024-01-30T01:46:26;9.40;;;4.25;;
73382;SDS011;61600;48.126;11.542;2024-01-30T01:48:52;8.95;;;4.07;;
73382;SDS011;61600;48.126;11.542;2024-01-30T01:51:20;9.45;;;3.92;;
73382;SDS011;61600;48.126;11.542;2024-01-30T01:53:47;7.63;;;3.70;;
73382;SDS011;61600;48.126;11.542;2024-01-30T01:56:12;6.82;;;3.35;;
73382;SDS011;61600;48.126;11.542;2024-01-30T01:58:38;8.23;;;3.80;;
73382;SDS011;61600;48.126;11.542;2024-01-30T02:01:05;8.23;;;3.70;;
73382;SDS011;61600;48.126;11.542;2024-01-30T02:03:31;9.43;;;4.13;;
73382;SDS011;61600;48.126;11.542;2024-01-30T02:05:56;8.52;;;4.13;;
73382;SDS011;61600;48.126;11.542;2024-01-30T02:08:22;7.22;;;3.42;;
73382;SDS011;61600;48.126;11.542;2024-01-30T02:10:49;12.15;;;3.92;;
73382;SDS011;61600;48.126;11.542;2024-01-30T02:13:14;9.65;;;3.95;;
73382;SDS011;61600;48.126;11.542;2024-01-30T02:15:40;8.15;;;3.78;;
73382;SDS011;61600;48.126;11.542;2024-01-30T02:18:05;7.20;;;3.60;;
73382;SDS011;61600;48.126;11.542;2024-01-30T02:20:31;7.93;;;4.28;;
73382;SDS011;61600;48.126;11.542;2024-01-30T02:23:00;8.73;;;3.75;;
73382;SDS011;61600;48.126;11.542;2024-01-30T02:25:39;11.45;;;4.10;;
73382;SDS011;61600;48.126;11.542;2024-01-30T02:28:11;8.57;;;4.32;;
73382;SDS011;61600;48.126;11.542;2024-01-30T02:30:38;7.43;;;3.80;;
73382;SDS011;61600;48.126;11.542;2024-01-30T02:33:04;11.05;;;4.60;;
73382;SDS011;61600;48.126;11.542;2024-01-30T02:35:30;9.35;;;4.47;;
73382;SDS011;61600;48.126;11.542;2024-01-30T02:37:55;7.03;;;3.75;;
73382;SDS011;61600;48.126;11.542;2024-01-30T02:40:21;9.55;;;3.70;;
73382;SDS011;61600;48.126;11.542;2024-01-30T02:42:46;11.20;;;4.35;;
73382;SDS011;61600;48.126;11.542;2024-01-30T02:45:12;10.18;;;3.85;;
73382;SDS011;61600;48.126;11.542;2024-01-30T02:47:38;7.38;;;3.67;;
73382;SDS011;61600;48.126;11.542;2024-01-30T02:50:04;9.60;;;3.58;;
73382;SDS011;61600;48.126;11.542;2024-01-30T02:52:30;7.82;;;3.92;;
73382;SDS011;61600;48.126;11.542;2024-01-30T02:54:56;7.75;;;3.45;;
73382;SDS011;61600;48.126;11.542;2024-01-30T02:57:21;10.52;;;3.97;;
73382;SDS011;61600;48.126;11.542;2024-01-30T02:59:47;8.55;;;4.15;;
73382;SDS011;61600;48.126;11.542;2024-01-30T03:02:13;8.57;;;3.78;;
73382;SDS011;61600;48.126;11.542;2024-01-30T03:04:40;8.98;;;3.65;;
73382;SDS011;61600;48.126;11.542;2024-01-30T03:07:06;9.05;;;4.05;;
73382;SDS011;61600;48.126;11.542;2024-01-30T03:09:34;7.60;;;4.38;;
73382;SDS011;61600;48.126;11.542;2024-01-30T03:12:01;8.32;;;3.63;;
73382;SDS011;61600;48.126;11.542;2024-01-30T03:14:26;7.28;;;3.72;;
73382;SDS011;61600;48.126;11.542;2024-01-30T03:16:52;8.05;;;3.40;;
73382;SDS011;61600;48.126;11.542;2024-01-30T03:19:26;5.80;;;3.40;;
73382;SDS011;61600;48.126;11.542;2024-01-30T03:21:52;9.60;;;3.85;;
73382;SDS011;61600;48.126;11.542;2024-01-30T03:24:17;9.85;;;3.58;;
73382;SDS011;61600;48.126;11.542;2024-01-30T03:26:43;5.72;;;3.40;;
73382;SDS011;61600;48.126;11.542;2024-01-30T03:29:09;9.27;;;3.75;;
73382;SDS011;61600;48.126;11.542;2024-01-30T03:31:34;7.20;;;3.58;;
73382;SDS011;61600;48.126;11.542;2024-01-30T03:34:00;8.48;;;4.20;;
73382;SDS011;61600;48.126;11.542;2024-01-30T03:36:27;7.28;;;3.47;;
73382;SDS011;61600;48.126;11.542;2024-01-30T03:38:53;7.22;;;3.28;;
73382;SDS011;61600;48.126;11.542;2024-01-30T03:41:18;7.38;;;3.83;;
73382;SDS011;61600;48.126;11.542;2024-01-30T03:43:44;9.27;;;3.70;;
73382;SDS011;61600;48.126;11.542;2024-01-30T03:46:11;7.80;;;3.70;;
73382;SDS011;61600;48.126;11.542;2024-01-30T03:48:37;8.02;;;3.95;;
73382;SDS011;61600;48.126;11.542;2024-01-30T03:51:03;6.97;;;3.55;;
73382;SDS011;61600;48.126;11.542;2024-01-30T03:53:29;7.28;;;3.80;;
73382;SDS011;61600;48.126;11.542;2024-01-30T03:55:55;7.30;;;3.42;;
73382;SDS011;61600;48.126;11.542;2024-01-30T03:58:20;7.85;;;3.47;;
73382;SDS011;61600;48.126;11.542;2024-01-30T04:00:46;6.72;;;3.05;;
73382;SDS011;61600;48.126;11.542;2024-01-30T04:03:11;8.43;;;3.50;;
73382;SDS011;61600;48.126;11.542;2024-01-30T04:05:37;6.88;;;3.65;;
73382;SDS011;61600;48.126;11.542;2024-01-30T04:08:03;5.55;;;3.13;;
73382;SDS011;61600;48.126;11.542;2024-01-30T04:10:28;8.45;;;4.18;;
73382;SDS011;61600;48.126;11.542;2024-01-30T04:12:54;7.95;;;4.07;;
73382;SDS011;61600;48.126;11.542;2024-01-30T04:15:20;10.43;;;4.05;;
73382;SDS011;61600;48.126;11.542;2024-01-30T04:17:45;11.07;;;4.05;;
73382;SDS011;61600;48.126;11.542;2024-01-30T04:20:14;7.38;;;3.60;;
73382;SDS011;61600;48.126;11.542;2024-01-30T04:22:44;9.02;;;3.67;;
73382;SDS011;61600;48.126;11.542;2024-01-30T04:25:11;7.38;;;4.13;;
73382;SDS011;61600;48.126;11.542;2024-01-30T04:27:38;6.88;;;3.90;;
73382;SDS011;61600;48.126;11.542;2024-01-30T04:30:04;9.13;;;3.38;;
73382;SDS011;61600;48.126;11.542;2024-01-30T04:32:30;6.90;;;3.42;;
73382;SDS011;61600;48.126;11.542;2024-01-30T04:34:55;15.93;;;4.65;;
73382;SDS011;61600;48.126;11.542;2024-01-30T04:37:21;17.85;;;5.07;;
73382;SDS011;61600;48.126;11.542;2024-01-30T04:39:46;22.92;;;4.97;;
73382;SDS011;61600;48.126;11.542;2024-01-30T04:42:12;12.15;;;4.50;;
73382;SDS011;61600;48.126;11.542;2024-01-30T04:44:38;15.75;;;4.78;;
73382;SDS011;61600;48.126;11.542;2024-01-30T04:47:03;12.15;;;4.38;;
73382;SDS011;61600;48.126;11.542;2024-01-30T04:51:56;11.13;;;3.38;;
73382;SDS011;61600;48.126;11.542;2024-01-30T04:54:23;10.05;;;4.07;;
73382;SDS011;61600;48.126;11.542;2024-01-30T04:56:48;9.55;;;3.67;;
73382;SDS011;61600;48.126;11.542;2024-01-30T04:59:14;13.32;;;3.78;;
73382;SDS011;61600;48.126;11.542;2024-01-30T05:01:39;12.60;;;4.10;;
73382;SDS011;61600;48.126;11.542;2024-01-30T05:04:07;11.63;;;4.28;;
73382;SDS011;61600;48.126;11.542;2024-01-30T05:06:33;13.55;;;4.47;;
73382;SDS011;61600;48.126;11.542;2024-01-30T05:08:58;9.07;;;3.67;;
73382;SDS011;61600;48.126;11.542;2024-01-30T05:11:24;6.50;;;3.15;;
73382;SDS011;61600;48.126;11.542;2024-01-30T05:13:49;12.43;;;4.15;;
73382;SDS011;61600;48.126;11.542;2024-01-30T05:16:15;14.70;;;3.58;;
73382;SDS011;61600;48.126;11.542;2024-01-30T05:18:40;12.00;;;3.92;;
73382;SDS011;61600;48.126;11.542;2024-01-30T05:21:06;10.77;;;3.63;;
73382;SDS011;61600;48.126;11.542;2024-01-30T05:23:33;7.72;;;3.92;;
73382;SDS011;61600;48.126;11.542;2024-01-30T05:25:59;7.38;;;4.00;;
73382;SDS011;61600;48.126;11.542;2024-01-30T05:28:26;11.63;;;3.60;;
73382;SDS011;61600;48.126;11.542;2024-01-30T05:30:51;5.32;;;3.22;;
73382;SDS011;61600;48.126;11.542;2024-01-30T05:33:17;12.57;;;4.10;;
73382;SDS011;61600;48.126;11.542;2024-01-30T05:35:43;7.25;;;3.67;;
73382;SDS011;61600;48.126;11.542;2024-01-30T05:38:08;6.68;;;2.90;;
73382;SDS011;61600;48.126;11.542;2024-01-30T05:40:34;11.85;;;3.80;;
73382;SDS011;61600;48.126;11.542;2024-01-30T05:42:59;10.27;;;4.15;;
73382;SDS011;61600;48.126;11.542;2024-01-30T05:45:26;10.02;;;3.50;;
73382;SDS011;61600;48.126;11.542;2024-01-30T05:47:52;8.32;;;3.53;;
73382;SDS011;61600;48.126;11.542;2024-01-30T05:50:18;9.43;;;4.18;;
73382;SDS011;61600;48.126;11.542;2024-01-30T05:52:44;8.82;;;3.88;;
73382;SDS011;61600;48.126;11.542;2024-01-30T05:55:11;9.63;;;3.83;;
73382;SDS011;61600;48.126;11.542;2024-01-30T05:57:37;8.82;;;3.65;;
73382;SDS011;61600;48.126;11.542;2024-01-30T06:00:04;7.30;;;3.35;;
73382;SDS011;61600;48.126;11.542;2024-01-30T06:02:30;11.25;;;3.47;;
73382;SDS011;61600;48.126;11.542;2024-01-30T06:04:56;9.32;;;3.70;;
73382;SDS011;61600;48.126;11.542;2024-01-30T06:07:22;10.38;;;4.22;;
73382;SDS011;61600;48.126;11.542;2024-01-30T06:09:47;16.33;;;4.22;;
73382;SDS011;61600;48.126;11.542;2024-01-30T06:12:13;9.57;;;3.72;;
73382;SDS011;61600;48.126;11.542;2024-01-30T06:14:39;7.63;;;3.67;;
73382;SDS011;61600;48.126;11.542;2024-01-30T06:17:04;9.10;;;4.28;;
73382;SDS011;61600;48.126;11.542;2024-01-30T06:19:30;7.78;;;3.60;;
73382;SDS011;61600;48.126;11.542;2024-01-30T06:21:56;8.90;;;4.20;;
73382;SDS011;61600;48.126;11.542;2024-01-30T06:24:21;5.03;;;3.22;;
73382;SDS011;61600;48.126;11.542;2024-01-30T06:26:47;10.70;;;4.05;;
73382;SDS011;61600;48.126;11.542;2024-01-30T06:29:12;8.05;;;3.55;;
73382;SDS011;61600;48.126;11.542;2024-01-30T06:31:40;6.82;;;4.00;;
73382;SDS011;61600;48.126;11.542;2024-01-30T06:34:07;11.80;;;4.15;;
73382;SDS011;61600;48.126;11.542;2024-01-30T06:36:33;6.38;;;3.60;;
73382;SDS011;61600;48.126;11.542;2024-01-30T06:39:00;8.65;;;3.08;;
73382;SDS011;61600;48.126;11.542;2024-01-30T06:41:27;10.45;;;3.03;;
73382;SDS011;61600;48.126;11.542;2024-01-30T06:43:52;14.32;;;3.70;;
73382;SDS011;61600;48.126;11.542;2024-01-30T06:46:18;10.23;;;3.42;;
73382;SDS011;61600;48.126;11.542;2024-01-30T06:48:44;10.00;;;3.50;;
73382;SDS011;61600;48.126;11.542;2024-01-30T06:51:10;7.82;;;3.45;;
73382;SDS011;61600;48.126;11.542;2024-01-30T06:53:36;12.70;;;3.63;;
73382;SDS011;61600;48.126;11.542;2024-01-30T06:56:02;7.82;;;3.40;;
73382;SDS011;61600;48.126;11.542;2024-01-30T06:58:28;8.73;;;3.15;;
73382;SDS011;61600;48.126;11.542;2024-01-30T07:00:54;13.52;;;3.17;;
73382;SDS011;61600;48.126;11.542;2024-01-30T07:03:20;11.25;;;2.50;;
73382;SDS011;61600;48.126;11.542;2024-01-30T07:05:45;5.55;;;2.28;;
73382;SDS011;61600;48.126;11.542;2024-01-30T07:08:11;8.90;;;3.22;;
73382;SDS011;61600;48.126;11.542;2024-01-30T07:10:38;9.00;;;2.67;;
73382;SDS011;61600;48.126;11.542;2024-01-30T07:13:04;8.73;;;3.28;;
73382;SDS011;61600;48.126;11.542;2024-01-30T07:15:30;5.68;;;2.65;;
73382;SDS011;61600;48.126;11.542;2024-01-30T07:17:56;7.63;;;2.70;;
73382;SDS011;61600;48.126;11.542;2024-01-30T07:20:23;9.20;;;2.95;;
73382;SDS011;61600;48.126;11.542;2024-01-30T07:22:49;8.55;;;3.28;;
73382;SDS011;61600;48.126;11.542;2024-01-30T07:25:15;20.00;;;4.32;;
73382;SDS011;61600;48.126;11.542;2024-01-30T07:27:42;12.93;;;3.70;;
73382;SDS011;61600;48.126;11.542;2024-01-30T07:30:07;6.65;;;2.75;;
73382;SDS011;61600;48.126;11.542;2024-01-30T07:32:33;8.32;;;2.78;;
73382;SDS011;61600;48.126;11.542;2024-01-30T07:34:59;12.32;;;3.00;;
73382;SDS011;61600;48.126;11.542;2024-01-30T07:37:25;11.88;;;3.33;;
73382;SDS011;61600;48.126;11.542;2024-01-30T07:39:50;8.05;;;2.72;;
73382;SDS011;61600;48.126;11.542;2024-01-30T07:42:16;11.88;;;3.10;;
73382;SDS011;61600;48.126;11.542;2024-01-30T07:44:43;5.35;;;1.88;;
73382;SDS011;61600;48.126;11.542;2024-01-30T07:47:09;5.50;;;2.88;;
73382;SDS011;61600;48.126;11.542;2024-01-30T07:49:35;6.03;;;1.92;;
73382;SDS011;61600;48.126;11.542;2024-01-30T07:52:00;7.22;;;2.35;;
73382;SDS011;61600;48.126;11.542;2024-01-30T07:54:27;11.10;;;2.30;;
73382;SDS011;61600;48.126;11.542;2024-01-30T07:56:53;6.20;;;2.22;;
73382;SDS011;61600;48.126;11.542;2024-01-30T07:59:18;4.35;;;2.00;;
73382;SDS011;61600;48.126;11.542;2024-01-30T08:01:46;6.75;;;2.40;;
73382;SDS011;61600;48.126;11.542;2024-01-30T08:04:12;4.18;;;2.15;;
73382;SDS011;61600;48.126;11.542;2024-01-30T08:06:38;5.10;;;2.15;;
73382;SDS011;61600;48.126;11.542;2024-01-30T08:09:04;9.52;;;2.80;;
73382;SDS011;61600;48.126;11.542;2024-01-30T08:11:30;8.60;;;3.28;;
73382;SDS011;61600;48.126;11.542;2024-01-30T08:13:56;9.32;;;3.20;;
73382;SDS011;61600;48.126;11.542;2024-01-30T08:16:23;10.60;;;3.05;;
73382;SDS011;61600;48.126;11.542;2024-01-30T08:18:49;12.80;;;3.60;;
73382;SDS011;61600;48.126;11.542;2024-01-30T08:21:14;14.68;;;3.63;;
73382;SDS011;61600;48.126;11.542;2024-01-30T08:23:40;11.27;;;3.63;;
73382;SDS011;61600;48.126;11.542;2024-01-30T08:26:06;19.15;;;4.18;;
73382;SDS011;61600;48.126;11.542;2024-01-30T08:28:32;15.45;;;5.55;;
73382;SDS011;61600;48.126;11.542;2024-01-30T08:30:57;16.63;;;4.50;;
73382;SDS011;61600;48.126;11.542;2024-01-30T08:33:23;15.55;;;5.25;;
73382;SDS011;61600;48.126;11.542;2024-01-30T08:35:48;8.82;;;3.42;;
73382;SDS011;61600;48.126;11.542;2024-01-30T08:38:15;12.30;;;3.78;;
73382;SDS011;61600;48.126;11.542;2024-01-30T08:40:40;15.43;;;4.20;;
73382;SDS011;61600;48.126;11.542;2024-01-30T08:43:06;11.38;;;3.50;;
73382;SDS011;61600;48.126;11.542;2024-01-30T08:45:33;10.38;;;3.63;;
73382;SDS011;61600;48.126;11.542;2024-01-30T08:47:58;13.45;;;3.45;;
73382;SDS011;61600;48.126;11.542;2024-01-30T08:50:24;11.45;;;4.13;;
73382;SDS011;61600;48.126;11.542;2024-01-30T08:52:49;11.18;;;4.47;;
73382;SDS011;61600;48.126;11.542;2024-01-30T08:55:15;14.48;;;3.75;;
73382;SDS011;61600;48.126;11.542;2024-01-30T08:57:41;13.90;;;3.85;;
73382;SDS011;61600;48.126;11.542;2024-01-30T09:00:06;13.93;;;4.68;;
73382;SDS011;61600;48.126;11.542;2024-01-30T09:02:34;10.18;;;3.78;;
73382;SDS011;61600;48.126;11.542;2024-01-30T09:05:00;12.02;;;3.25;;
73382;SDS011;61600;48.126;11.542;2024-01-30T09:07:25;12.10;;;3.05;;
73382;SDS011;61600;48.126;11.542;2024-01-30T09:09:51;14.90;;;3.17;;
73382;SDS011;61600;48.126;11.542;2024-01-30T09:12:17;9.50;;;3.28;;
73382;SDS011;61600;48.126;11.542;2024-01-30T09:14:42;12.75;;;4.50;;
73382;SDS011;61600;48.126;11.542;2024-01-30T09:17:08;12.60;;;3.90;;
73382;SDS011;61600;48.126;11.542;2024-01-30T09:19:34;11.27;;;3.47;;
73382;SDS011;61600;48.126;11.542;2024-01-30T09:21:59;19.95;;;4.40;;
73382;SDS011;61600;48.126;11.542;2024-01-30T09:24:26;11.77;;;3.15;;
73382;SDS011;61600;48.126;11.542;2024-01-30T09:26:52;14.75;;;3.03;;
73382;SDS011;61600;48.126;11.542;2024-01-30T09:29:17;18.00;;;3.75;;
73382;SDS011;61600;48.126;11.542;2024-01-30T09:31:46;9.65;;;3.05;;
73382;SDS011;61600;48.126;11.542;2024-01-30T09:34:12;9.90;;;2.40;;
73382;SDS011;61600;48.126;11.542;2024-01-30T09:36:38;7.63;;;2.40;;
73382;SDS011;61600;48.126;11.542;2024-01-30T09:39:03;6.55;;;2.58;;
73382;SDS011;61600;48.126;11.542;2024-01-30T09:41:31;4.63;;;1.90;;
73382;SDS011;61600;48.126;11.542;2024-01-30T09:44:09;6.20;;;2.95;;
73382;SDS011;61600;48.126;11.542;2024-01-30T09:46:36;10.95;;;2.90;;
73382;SDS011;61600;48.126;11.542;2024-01-30T09:49:03;6.50;;;1.80;;
73382;SDS011;61600;48.126;11.542;2024-01-30T09:51:30;7.13;;;2.00;;
73382;SDS011;61600;48.126;11.542;2024-01-30T09:53:56;4.20;;;1.80;;
73382;SDS011;61600;48.126;11.542;2024-01-30T09:56:22;5.47;;;1.83;;
73382;SDS011;61600;48.126;11.542;2024-01-30T09:58:47;6.28;;;1.73;;
73382;SDS011;61600;48.126;11.542;2024-01-30T10:01:13;7.30;;;2.00;;
73382;SDS011;61600;48.126;11.542;2024-01-30T10:03:44;5.85;;;2.50;;
73382;SDS011;61600;48.126;11.542;2024-01-30T10:06:09;13.70;;;2.70;;
73382;SDS011;61600;48.126;11.542;2024-01-30T10:08:35;6.45;;;2.42;;
73382;SDS011;61600;48.126;11.542;2024-01-30T10:11:01;9.10;;;2.63;;
73382;SDS011;61600;48.126;11.542;2024-01-30T10:13:28;7.90;;;3.05;;
73382;SDS011;61600;48.126;11.542;2024-01-30T10:15:54;9.30;;;3.03;;
73382;SDS011;61600;48.126;11.542;2024-01-30T10:18:22;11.02;;;3.47;;
73382;SDS011;61600;48.126;11.542;2024-01-30T10:20:48;11.32;;;3.15;;
73382;SDS011;61600;48.126;11.542;2024-01-30T10:23:13;51.80;;;18.90;;
73382;SDS011;61600;48.126;11.542;2024-01-30T10:25:39;93.82;;;31.23;;
73382;SDS011;61600;48.126;11.542;2024-01-30T10:28:04;35.63;;;13.73;;
73382;SDS011;61600;48.126;11.542;2024-01-30T10:30:30;15.63;;;5.70;;
73382;SDS011;61600;48.126;11.542;2024-01-30T10:32:56;9.57;;;3.58;;
73382;SDS011;61600;48.126;11.542;2024-01-30T10:35:21;7.88;;;3.58;;
73382;SDS011;61600;48.126;11.542;2024-01-30T10:37:47;8.93;;;2.67;;
73382;SDS011;61600;48.126;11.542;2024-01-30T10:40:14;6.72;;;2.42;;
73382;SDS011;61600;48.126;11.542;2024-01-30T10:42:52;5.47;;;1.83;;
73382;SDS011;61600;48.126;11.542;2024-01-30T10:45:20;8.48;;;1.85;;
73382;SDS011;61600;48.126;11.542;2024-01-30T10:50:18;5.13;;;2.08;;
73382;SDS011;61600;48.126;11.542;2024-01-30T10:52:45;4.72;;;1.70;;
73382;SDS011;61600;48.126;11.542;2024-01-30T10:55:12;10.18;;;3.17;;
73382;SDS011;61600;48.126;11.542;2024-01-30T11:00:05;5.03;;;2.08;;
73382;SDS011;61600;48.126;11.542;2024-01-30T11:02:36;8.15;;;1.90;;
73382;SDS011;61600;48.126;11.542;2024-01-30T11:05:10;4.40;;;1.77;;
73382;SDS011;61600;48.126;11.542;2024-01-30T11:07:38;7.78;;;1.67;;
73382;SDS011;61600;48.126;11.542;2024-01-30T11:10:04;5.43;;;1.70;;
73382;SDS011;61600;48.126;11.542;2024-01-30T11:12:32;5.20;;;1.80;;
73382;SDS011;61600;48.126;11.542;2024-01-30T11:20:14;4.53;;;1.15;;
73382;SDS011;61600;48.126;11.542;2024-01-30T11:22:47;4.05;;;1.38;;
73382;SDS011;61600;48.126;11.542;2024-01-30T11:25:16;2.80;;;1.30;;
73382;SDS011;61600;48.126;11.542;2024-01-30T11:27:44;6.13;;;1.20;;
73382;SDS011;61600;48.126;11.542;2024-01-30T11:30:11;4.25;;;1.17;;
73382;SDS011;61600;48.126;11.542;2024-01-30T11:32:57;1.92;;;0.88;;
73382;SDS011;61600;48.126;11.542;2024-01-30T11:35:30;5.40;;;1.30;;
73382;SDS011;61600;48.126;11.542;2024-01-30T11:37:58;5.63;;;1.63;;
73382;SDS011;61600;48.126;11.542;2024-01-30T11:42:52;4.18;;;1.30;;
73382;SDS011;61600;48.126;11.542;2024-01-30T11:45:19;5.70;;;1.75;;
73382;SDS011;61600;48.126;11.542;2024-01-30T11:47:47;4.10;;;1.80;;
73382;SDS011;61600;48.126;11.542;2024-01-30T11:50:13;5.82;;;1.75;;
73382;SDS011;61600;48.126;11.542;2024-01-30T11:52:39;6.18;;;2.65;;
73382;SDS011;61600;48.126;11.542;2024-01-30T11:55:06;5.90;;;1.67;;
73382;SDS011;61600;48.126;11.542;2024-01-30T11:57:33;11.27;;;2.15;;
73382;SDS011;61600;48.126;11.542;2024-01-30T12:00:00;6.10;;;1.75;;
73382;SDS011;61600;48.126;11.542;2024-01-30T12:02:26;4.68;;;1.40;;
73382;SDS011;61600;48.126;11.542;2024-01-30T12:04:52;5.82;;;1.80;;
73382;SDS011;61600;48.126;11.542;2024-01-30T12:07:18;6.72;;;2.72;;
73382;SDS011;61600;48.126;11.542;2024-01-30T12:09:52;4.00;;;1.83;;
73382;SDS011;61600;48.126;11.542;2024-01-30T12:12:19;5.80;;;1.60;;
73382;SDS011;61600;48.126;11.542;2024-01-30T12:14:48;3.33;;;1.50;;
73382;SDS011;61600;48.126;11.542;2024-01-30T12:17:26;5.45;;;1.73;;
73382;SDS011;61600;48.126;11.542;2024-01-30T12:22:39;9.13;;;2.03;;
73382;SDS011;61600;48.126;11.542;2024-01-30T12:25:10;3.28;;;1.30;;
73382;SDS011;61600;48.126;11.542;2024-01-30T12:27:36;6.65;;;1.63;;
73382;SDS011;61600;48.126;11.542;2024-01-30T12:30:06;5.85;;;1.75;;
73382;SDS011;61600;48.126;11.542;2024-01-30T12:32:34;3.67;;;1.42;;
73382;SDS011;61600;48.126;11.542;2024-01-30T12:35:11;8.90;;;1.85;;
73382;SDS011;61600;48.126;11.542;2024-01-30T12:37:37;6.63;;;1.58;;
73382;SDS011;61600;48.126;11.542;2024-01-30T12:40:03;4.07;;;1.40;;
73382;SDS011;61600;48.126;11.542;2024-01-30T12:42:31;3.58;;;1.25;;
73382;SDS011;61600;48.126;11.542;2024-01-30T12:44:57;4.45;;;2.28;;
73382;SDS011;61600;48.126;11.542;2024-01-30T12:47:24;3.30;;;1.20;;
73382;SDS011;61600;48.126;11.542;2024-01-30T12:49:50;3.35;;;1.50;;
73382;SDS011;61600;48.126;11.542;2024-01-30T12:52:19;9.60;;;2.25;;
73382;SDS011;61600;48.126;11.542;2024-01-30T12:59:36;8.55;;;1.63;;
73382;SDS011;61600;48.126;11.542;2024-01-30T13:02:02;4.18;;;1.33;;
73382;SDS011;61600;48.126;11.542;2024-01-30T13:04:28;5.85;;;1.50;;
73382;SDS011;61600;48.126;11.542;2024-01-30T13:06:54;11.00;;;1.30;;
73382;SDS011;61600;48.126;11.542;2024-01-30T13:09:20;6.82;;;1.92;;
73382;SDS011;61600;48.126;11.542;2024-01-30T13:11:46;3.80;;;1.60;;
73382;SDS011;61600;48.126;11.542;2024-01-30T13:14:12;3.63;;;1.60;;
73382;SDS011;61600;48.126;11.542;2024-01-30T13:16:37;3.13;;;1.20;;
73382;SDS011;61600;48.126;11.542;2024-01-30T13:19:03;5.68;;;1.30;;
73382;SDS011;61600;48.126;11.542;2024-01-30T13:21:29;5.68;;;1.67;;
73382;SDS011;61600;48.126;11.542;2024-01-30T13:23:54;10.98;;;1.38;;
73382;SDS011;61600;48.126;11.542;2024-01-30T13:26:20;1.88;;;1.00;;
73382;SDS011;61600;48.126;11.542;2024-01-30T13:28:46;4.68;;;1.40;;
73382;SDS011;61600;48.126;11.542;2024-01-30T13:31:14;3.80;;;1.52;;
73382;SDS011;61600;48.126;11.542;2024-01-30T13:33:40;6.72;;;1.10;;
73382;SDS011;61600;48.126;11.542;2024-01-30T13:36:07;5.07;;;1.60;;
73382;SDS011;61600;48.126;11.542;2024-01-30T13:43:24;5.95;;;1.42;;
73382;SDS011;61600;48.126;11.542;2024-01-30T13:45:50;3.05;;;1.20;;
73382;SDS011;61600;48.126;11.542;2024-01-30T13:48:16;5.10;;;1.42;;
73382;SDS011;61600;48.126;11.542;2024-01-30T13:50:42;6.97;;;1.13;;
73382;SDS011;61600;48.126;11.542;2024-01-30T13:53:07;4.40;;;1.42;;
73382;SDS011;61600;48.126;11.542;2024-01-30T13:55:33;5.75;;;1.20;;
73382;SDS011;61600;48.126;11.542;2024-01-30T13:57:59;5.22;;;1.48;;
73382;SDS011;61600;48.126;11.542;2024-01-30T14:00:26;2.90;;;1.33;;
73382;SDS011;61600;48.126;11.542;2024-01-30T14:02:53;3.60;;;1.02;;
73382;SDS011;61600;48.126;11.542;2024-01-30T14:05:22;6.40;;;1.40;;
73382;SDS011;61600;48.126;11.542;2024-01-30T14:07:48;3.83;;;1.63;;
73382;SDS011;61600;48.126;11.542;2024-01-30T14:10:15;4.80;;;1.33;;
73382;SDS011;61600;48.126;11.542;2024-01-30T14:12:41;4.05;;;1.40;;
73382;SDS011;61600;48.126;11.542;2024-01-30T14:15:08;3.35;;;1.42;;
73382;SDS011;61600;48.126;11.542;2024-01-30T14:17:35;9.02;;;1.88;;
73382;SDS011;61600;48.126;11.542;2024-01-30T14:20:01;7.10;;;1.42;;
73382;SDS011;61600;48.126;11.542;2024-01-30T14:22:28;5.65;;;1.70;;
73382;SDS011;61600;48.126;11.542;2024-01-30T14:24:54;6.72;;;1.58;;
73382;SDS011;61600;48.126;11.542;2024-01-30T14:27:19;7.13;;;2.25;;
73382;SDS011;61600;48.126;11.542;2024-01-30T14:29:45;7.72;;;1.55;;
73382;SDS011;61600;48.126;11.542;2024-01-30T14:32:10;9.77;;;1.67;;
73382;SDS011;61600;48.126;11.542;2024-01-30T14:34:36;7.70;;;1.60;;
73382;SDS011;61600;48.126;11.542;2024-01-30T14:37:01;10.85;;;2.10;;
73382;SDS011;61600;48.126;11.542;2024-01-30T14:39:29;4.32;;;1.67;;
73382;SDS011;61600;48.126;11.542;2024-01-30T14:44:20;4.45;;;1.50;;
73382;SDS011;61600;48.126;11.542;2024-01-30T14:46:45;8.02;;;2.03;;
73382;SDS011;61600;48.126;11.542;2024-01-30T14:49:11;4.57;;;1.80;;
73382;SDS011;61600;48.126;11.542;2024-01-30T14:51:37;5.65;;;1.80;;
73382;SDS011;61600;48.126;11.542;2024-01-30T14:54:03;9.05;;;2.00;;
73382;SDS011;61600;48.126;11.542;2024-01-30T14:56:29;4.57;;;1.90;;